Amantha, North Carolina
Current Conditions -  °F | °C
As of 9:35 AM on Wednesday 22 Oct 2014 (Local Time) from KTNB Reporting Station
Clear Clear  
Wind Chill: 35°   Ceiling: Unl
Heat Index: 41°   Visibility: 10mi
Dew Point: 32°   Wind: 12mph
Humidity: 69%   Direction: 310°NW
Pressure: 30.1"   Gusts: 22mph
Location:  36.2666°N, 81.8431°W
Report Text: KTNB 221335Z AUTO 31010G19KT 10SM CLR 05/00 A3010 RMK AO2 T00511001
Loading
Personal Weather Stations






























Interactive Weather Map New forecast layout! Learn more

10-Day Weather Forecast

Advertisements
Track Severe Weather on mobile